Time;durP1;ratioP1;P1;durP2;ratioP2;P2;SDS_P1;SDS_P2;PMS_P1;PMS_P2;Temp;Humidity;BMP_temperature;BMP_pressure;BME280_temperature;BME280_humidity;BME280_pressure;Samples;Min_cycle;Max_cycle;Signal;HPM_P1;HPM_P2
2022/05/24 00:02:02;;;;;;;7.57;6.10;;;;;;;17.19;54.75;94340.78;5093005;28;20121;-70
2022/05/24 00:04:28;;;;;;;11.93;6.13;;;;;;;17.29;55.56;94356.25;5074807;28;20489;-69
2022/05/24 00:06:53;;;;;;;8.20;6.40;;;;;;;17.10;55.58;94338.41;5074944;28;20032;-69
2022/05/24 00:09:19;;;;;;;10.70;6.22;;;;;;;17.18;55.50;94343.56;5093005;28;20043;-69
2022/05/24 00:11:45;;;;;;;9.02;6.72;;;;;;;17.16;56.05;94337.69;5074894;28;20030;-69
2022/05/24 00:14:10;;;;;;;9.73;6.25;;;;;;;17.13;56.07;94336.25;5092874;28;20036;-69
2022/05/24 00:16:35;;;;;;;10.65;6.10;;;;;;;17.10;56.50;94339.22;5092642;28;20039;-69
2022/05/24 00:19:01;;;;;;;9.63;5.82;;;;;;;17.09;57.00;94344.66;5091529;28;20470;-69
2022/05/24 00:21:26;;;;;;;8.77;6.68;;;;;;;17.03;56.31;94337.50;5092611;28;20024;-69
2022/05/24 00:23:52;;;;;;;9.82;6.35;;;;;;;17.08;56.85;94335.16;5092557;28;20035;-69
2022/05/24 00:26:24;;;;;;;9.40;6.32;;;;;;;16.89;58.06;94326.78;5092571;28;20417;-69
2022/05/24 00:28:50;;;;;;;9.82;6.00;;;;;;;16.79;57.88;94320.16;5074863;28;20028;-69
2022/05/24 00:31:15;;;;;;;10.15;6.07;;;;;;;16.71;58.20;94326.25;5074444;28;20027;-69
2022/05/24 00:33:40;;;;;;;7.88;5.70;;;;;;;16.67;58.66;94332.84;5092392;28;20040;-69
2022/05/24 00:36:06;;;;;;;8.60;5.70;;;;;;;16.63;58.79;94336.78;5092369;28;20504;-69
2022/05/24 00:38:36;;;;;;;9.55;5.90;;;;;;;16.52;58.93;94333.63;5074009;28;20040;-69
2022/05/24 00:41:27;;;;;;;8.95;5.82;;;;;;;16.41;59.27;94339.25;5074703;28;20386;-69
2022/05/24 00:43:54;;;;;;;;;;;;;;;16.37;59.58;94330.09;5091412;28;20052;-69
2022/05/24 00:46:42;;;;;;;14.20;5.93;;;;;;;16.28;59.85;94333.78;5091024;28;19933;-69
2022/05/24 00:49:11;;;;;;;9.77;5.60;;;;;;;16.18;59.81;94338.41;5091097;28;20028;-69
2022/05/24 00:51:42;;;;;;;9.23;6.00;;;;;;;16.13;59.89;94331.09;5074319;28;20106;-69
2022/05/24 00:54:07;;;;;;;8.70;5.68;;;;;;;16.11;59.73;94332.25;5074493;28;20499;-69
2022/05/24 00:57:10;;;;;;;9.07;6.07;;;;;;;16.11;59.32;94342.72;5090685;28;20039;-69
2022/05/24 01:00:00;;;;;;;8.25;6.13;;;;;;;16.08;59.25;94334.22;5090729;28;20036;-69
2022/05/24 01:02:25;;;;;;;8.32;6.57;;;;;;;16.13;59.09;94335.47;5090527;28;20082;-69
2022/05/24 01:04:51;;;;;;;11.50;6.70;;;;;;;16.12;58.58;94341.72;5092098;28;20032;-69
2022/05/24 01:07:16;;;;;;;10.93;6.80;;;;;;;16.17;58.96;94342.03;5090615;28;20421;-69
2022/05/24 01:10:00;;;;;;;12.05;6.57;;;;;;;16.23;58.33;94346.56;5090509;28;20051;-69
2022/05/24 01:12:27;;;;;;;8.30;6.00;;;;;;;16.23;58.07;94349.19;5073700;28;20027;-69
2022/05/24 01:14:53;;;;;;;12.82;6.85;;;;;;;16.30;57.82;94345.72;5090503;28;20425;-69
2022/05/24 01:17:19;;;;;;;12.95;6.55;;;;;;;16.28;57.74;94341.63;5073525;28;20032;-69
2022/05/24 01:19:46;;;;;;;10.82;6.93;;;;;;;16.30;57.92;94344.91;5073526;28;20040;-69
2022/05/24 01:22:45;;;;;;;9.23;7.18;;;;;;;16.25;58.25;94352.47;5090277;28;20078;-69
2022/05/24 01:25:19;;;;;;;11.65;6.82;;;;;;;16.23;58.18;94346.56;5071606;28;20032;-69
2022/05/24 01:27:44;;;;;;;11.38;7.18;;;;;;;16.29;58.12;94345.88;5081438;28;20028;-69
2022/05/24 01:30:10;;;;;;;10.65;6.90;;;;;;;16.34;57.87;94348.78;5090186;28;20028;-69
2022/05/24 01:38:04;;;;;;;9.95;6.20;;;;;;;16.17;58.36;94361.19;5090281;28;20669;-69
2022/05/24 01:40:30;;;;;;;13.57;5.78;;;;;;;16.17;57.77;94355.13;5073182;28;20040;-69
2022/05/24 01:42:55;;;;;;;9.73;5.97;;;;;;;16.14;57.74;94339.75;5073147;28;20039;-69
2022/05/24 01:45:23;;;;;;;8.80;5.78;;;;;;;16.05;57.78;94324.06;5089746;28;20052;-69
2022/05/24 01:47:50;;;;;;;11.88;5.90;;;;;;;16.03;58.23;94330.47;5072992;28;20504;-69
2022/05/24 01:50:18;;;;;;;11.82;5.75;;;;;;;15.96;58.96;94335.56;5073353;28;20048;-69
2022/05/24 01:52:55;;;;;;;8.18;5.82;;;;;;;15.91;58.87;94348.38;5056236;28;20028;-69
2022/05/24 01:55:40;;;;;;;10.05;6.00;;;;;;;15.79;58.98;94341.88;5073188;28;20050;-69
2022/05/24 01:58:08;;;;;;;8.52;5.55;;;;;;;15.77;59.22;94351.72;5073439;28;20020;-70
2022/05/24 02:00:33;;;;;;;11.68;5.95;;;;;;;15.76;59.79;94352.69;5073086;28;20526;-69
2022/05/24 02:02:59;;;;;;;8.90;6.07;;;;;;;15.68;60.43;94355.31;5072812;28;20035;-70
2022/05/24 02:05:33;;;;;;;11.82;6.50;;;;;;;15.61;60.14;94340.28;5072912;28;20036;-69
2022/05/24 02:07:59;;;;;;;11.00;6.90;;;;;;;15.57;60.92;94344.22;5089732;28;20027;-69
2022/05/24 02:10:24;;;;;;;10.43;6.80;;;;;;;15.53;61.34;94339.50;5072951;28;20032;-69
2022/05/24 02:12:55;;;;;;;13.55;6.90;;;;;;;15.50;61.32;94348.50;5072867;28;20051;-69
2022/05/24 02:15:24;;;;;;;11.27;6.90;;;;;;;15.41;60.93;94329.38;5091266;28;20405;-69
2022/05/24 02:17:54;;;;;;;13.13;6.68;;;;;;;15.41;61.45;94352.13;5089499;28;20032;-69
2022/05/24 02:20:22;;;;;;;12.75;7.55;;;;;;;15.45;61.65;94353.41;5090166;28;20052;-69
2022/05/24 02:22:48;;;;;;;14.43;7.95;;;;;;;15.50;61.79;94353.72;5076597;28;20482;-69
2022/05/24 02:25:23;;;;;;;14.25;7.43;;;;;;;15.49;61.16;94373.06;5074967;28;20078;-69
2022/05/24 02:27:48;;;;;;;13.13;7.10;;;;;;;15.50;61.73;94364.19;5073453;28;20082;-69
2022/05/24 02:30:17;;;;;;;12.00;7.22;;;;;;;15.49;61.18;94364.34;5073413;28;20037;-69
2022/05/24 02:32:42;;;;;;;11.18;6.82;;;;;;;15.45;61.37;94355.22;5073274;28;20024;-69
2022/05/24 02:35:08;;;;;;;13.55;8.10;;;;;;;15.41;61.68;94341.66;5073353;28;20536;-69
2022/05/24 02:37:33;;;;;;;11.40;7.60;;;;;;;15.45;61.70;94337.72;5073050;28;20343;-69
2022/05/24 02:42:43;;;;;;;14.65;8.27;;;;;;;15.32;62.26;94334.78;5074278;28;20138;-69
2022/05/24 02:45:08;;;;;;;14.45;8.45;;;;;;;15.39;62.28;94349.66;5074100;28;20052;-69
2022/05/24 02:47:34;;;;;;;19.90;8.27;;;;;;;15.40;62.23;94358.34;5072954;28;20107;-69
2022/05/24 02:49:59;;;;;;;16.75;7.43;;;;;;;15.50;61.96;94377.28;5072983;28;20483;-69
2022/05/24 02:52:25;;;;;;;13.82;7.07;;;;;;;15.52;61.61;94379.75;5072903;28;20025;-69
2022/05/24 02:54:50;;;;;;;10.35;6.60;;;;;;;15.59;60.96;94381.50;5074290;28;20036;-70
2022/05/24 02:57:16;;;;;;;10.43;6.50;;;;;;;15.57;60.89;94383.50;5072742;28;20039;-69
2022/05/24 02:59:41;;;;;;;10.85;6.88;;;;;;;15.57;61.55;94378.25;5074144;28;20444;-69
2022/05/24 03:02:06;;;;;;;9.85;6.93;;;;;;;15.58;60.95;94376.47;5073957;28;20460;-69
2022/05/24 03:04:33;;;;;;;12.02;7.07;;;;;;;15.63;61.41;94377.59;5072549;28;20048;-69
2022/05/24 03:09:43;;;;;;;12.27;6.72;;;;;;;15.61;61.57;94370.88;5073976;28;20071;-69
2022/05/24 03:14:53;;;;;;;13.50;8.10;;;;;;;15.52;61.43;94370.09;5073976;28;20124;-69
2022/05/24 03:17:19;;;;;;;13.68;7.85;;;;;;;15.64;61.57;94370.53;5072304;28;20033;-69
2022/05/24 03:19:45;;;;;;;13.93;7.43;;;;;;;15.62;61.93;94365.47;5055745;28;20060;-69
2022/05/24 03:22:11;;;;;;;12.88;7.25;;;;;;;15.70;61.88;94363.84;5073569;28;20025;-69
2022/05/24 03:24:37;;;;;;;14.02;7.93;;;;;;;15.71;61.84;94357.63;5072323;28;20426;-69
2022/05/24 03:27:11;;;;;;;12.93;7.60;;;;;;;15.68;62.05;94358.75;5072314;28;20043;-69
2022/05/24 03:29:38;;;;;;;12.63;7.40;;;;;;;15.75;62.19;94358.94;5073664;28;20089;-69
2022/05/24 03:32:04;;;;;;;11.60;8.02;;;;;;;15.66;61.83;94360.72;5072168;28;20457;-69
2022/05/24 03:34:30;;;;;;;15.48;8.13;;;;;;;15.61;61.13;94344.69;5072099;28;20035;-69
2022/05/24 03:36:55;;;;;;;13.38;7.65;;;;;;;15.49;61.45;94359.97;5071964;28;20033;-69
2022/05/24 03:39:20;;;;;;;14.77;7.82;;;;;;;15.56;61.10;94366.13;5073494;28;20090;-69
2022/05/24 03:41:46;;;;;;;14.77;8.05;;;;;;;15.58;61.08;94364.19;5072018;28;20032;-69
2022/05/24 03:44:12;;;;;;;13.25;7.90;;;;;;;15.58;60.99;94358.94;5073159;28;20059;-69
2022/05/24 03:46:38;;;;;;;13.23;7.60;;;;;;;15.65;60.83;94362.50;5055254;28;20056;-69
2022/05/24 03:49:04;;;;;;;13.73;7.82;;;;;;;15.66;60.65;94365.97;5055225;28;20109;-69
2022/05/24 03:51:29;;;;;;;13.07;7.57;;;;;;;15.73;60.57;94377.41;5073285;28;20016;-69
2022/05/24 03:53:55;;;;;;;12.18;7.82;;;;;;;15.73;60.83;94376.59;5071702;28;20055;-69
2022/05/24 03:56:20;;;;;;;12.85;7.60;;;;;;;15.72;60.73;94382.84;5071703;28;20115;-69
2022/05/24 03:58:46;;;;;;;11.73;7.68;;;;;;;15.68;60.97;94379.72;5072984;28;20044;-69
2022/05/24 04:01:11;;;;;;;12.85;7.28;;;;;;;15.71;60.92;94382.03;5073167;28;20032;-69
2022/05/24 04:03:37;;;;;;;13.50;7.00;;;;;;;15.78;60.66;94390.81;5071404;28;20482;-69
2022/05/24 04:06:03;;;;;;;13.20;7.60;;;;;;;15.71;60.92;94384.63;5072763;28;20025;-69
2022/05/24 04:08:29;;;;;;;10.45;6.80;;;;;;;15.94;60.54;94395.19;5071479;28;20039;-69
2022/05/24 04:11:05;;;;;;;13.27;7.50;;;;;;;16.12;60.61;94394.13;5086918;28;20024;-69
2022/05/24 04:13:31;;;;;;;9.57;7.15;;;;;;;16.17;60.26;94404.91;5075167;28;20131;-69
2022/05/24 04:15:56;;;;;;;11.40;7.15;;;;;;;16.24;60.00;94398.81;5091753;28;20038;-70
2022/05/24 04:18:22;;;;;;;11.55;6.82;;;;;;;16.17;60.17;94410.16;5088795;28;20033;-69
2022/05/24 04:20:47;;;;;;;11.57;7.00;;;;;;;16.13;60.26;94416.72;5084245;28;20032;-69
2022/05/24 04:23:13;;;;;;;10.95;6.65;;;;;;;16.05;61.13;94404.47;5075097;28;20027;-69
2022/05/24 04:25:38;;;;;;;9.13;6.75;;;;;;;15.95;61.79;94398.63;5076816;28;20081;-69
2022/05/24 04:28:04;;;;;;;13.07;6.85;;;;;;;15.95;61.70;94404.66;5071136;28;20498;-69
2022/05/24 04:30:30;;;;;;;9.85;6.60;;;;;;;15.94;61.79;94389.13;5054625;28;20032;-69
2022/05/24 04:32:55;;;;;;;18.23;7.28;;;;;;;15.99;61.67;94394.66;5070948;28;20028;-70
2022/05/24 04:35:20;;;;;;;11.35;7.90;;;;;;;16.50;61.14;94387.22;5076166;28;20483;-69
2022/05/24 04:37:46;;;;;;;15.25;7.57;;;;;;;16.82;59.27;94367.00;5075800;28;20031;-69
2022/05/24 04:40:12;;;;;;;11.75;7.00;;;;;;;17.02;58.37;94389.16;5070167;28;20579;-72
2022/05/24 04:42:38;;;;;;;10.57;7.03;;;;;;;16.96;58.06;94390.66;5072627;28;20024;-69
2022/05/24 04:45:06;;;;;;;13.07;6.50;;;;;;;16.98;57.78;94382.63;5091305;28;20440;-69
2022/05/24 04:47:32;;;;;;;11.75;6.43;;;;;;;16.96;57.41;94384.59;5074185;28;20032;-68
2022/05/24 04:49:59;;;;;;;10.18;6.60;;;;;;;16.88;57.94;94377.63;5061689;28;20040;-69
2022/05/24 04:52:26;;;;;;;12.85;6.47;;;;;;;17.06;57.60;94371.25;5080610;28;20021;-68
2022/05/24 04:54:53;;;;;;;10.23;6.10;;;;;;;17.15;57.73;94364.94;5070613;28;20071;-69
2022/05/24 04:57:19;;;;;;;13.82;6.07;;;;;;;17.37;56.67;94371.94;5067524;28;20494;-69
2022/05/24 04:59:44;;;;;;;11.40;5.82;;;;;;;17.55;56.32;94389.16;5070452;28;20039;-68
2022/05/24 05:02:10;;;;;;;10.40;6.55;;;;;;;17.66;55.44;94375.56;5086414;28;20047;-67
2022/05/24 05:04:36;;;;;;;9.35;6.13;;;;;;;17.94;55.15;94382.84;5073841;28;20037;-70
2022/05/24 05:07:01;;;;;;;12.27;6.05;;;;;;;18.02;55.46;94386.19;5065220;28;20044;-68
2022/05/24 05:09:34;;;;;;;10.68;6.25;;;;;;;18.15;55.03;94393.44;5078806;28;20037;-69
2022/05/24 05:12:09;;;;;;;12.35;7.07;;;;;;;18.27;54.85;94405.09;5086575;28;20028;-69
2022/05/24 05:14:35;;;;;;;17.13;7.38;;;;;;;18.18;54.52;94416.72;5073425;28;20036;-70
2022/05/24 05:17:01;;;;;;;13.32;7.20;;;;;;;18.02;55.24;94419.53;5090944;28;20035;-69
2022/05/24 05:19:27;;;;;;;15.27;7.45;;;;;;;17.86;55.73;94418.75;5058081;28;20035;-70
2022/05/24 05:21:53;;;;;;;14.52;7.05;;;;;;;17.74;56.39;94417.50;5080753;28;20113;-71
2022/05/24 05:24:18;;;;;;;14.50;7.30;;;;;;;17.75;56.79;94432.28;5073891;28;20061;-70
2022/05/24 05:26:44;;;;;;;10.75;6.85;;;;;;;17.70;56.91;94433.81;5078161;28;20509;-69
2022/05/24 05:29:09;;;;;;;11.82;7.15;;;;;;;17.71;56.53;94431.00;5079046;28;20406;-68
2022/05/24 05:31:35;;;;;;;12.02;6.93;;;;;;;17.68;56.21;94434.00;5087262;28;20044;-69
2022/05/24 05:34:00;;;;;;;14.35;7.03;;;;;;;17.61;56.20;94433.09;5076507;28;20028;-68
2022/05/24 05:36:30;;;;;;;14.88;6.90;;;;;;;17.55;56.43;94432.00;5078381;28;20046;-68
2022/05/24 05:38:56;;;;;;;13.57;7.10;;;;;;;17.52;56.63;94436.78;5075695;28;20052;-68
2022/05/24 05:41:23;;;;;;;11.80;7.03;;;;;;;17.46;56.97;94437.50;5072895;28;20032;-69
2022/05/24 05:43:49;;;;;;;18.73;7.43;;;;;;;17.42;56.79;94431.78;5073517;28;20406;-69
2022/05/24 05:46:15;;;;;;;10.02;6.78;;;;;;;17.44;57.45;94435.06;5073643;28;20115;-68
2022/05/24 05:48:40;;;;;;;10.40;6.68;;;;;;;17.48;56.06;94438.13;5079594;28;20033;-69
2022/05/24 05:51:06;;;;;;;14.07;6.65;;;;;;;17.55;56.13;94442.50;5089199;28;20451;-68
2022/05/24 05:53:32;;;;;;;15.63;6.88;;;;;;;17.51;56.38;94438.59;5087279;28;20426;-68
2022/05/24 05:55:57;;;;;;;13.55;7.03;;;;;;;17.61;56.30;94441.78;5070366;28;20063;-70
2022/05/24 05:58:23;;;;;;;11.68;6.82;;;;;;;17.81;56.81;94449.19;5088822;28;20028;-69
2022/05/24 06:00:49;;;;;;;12.02;7.18;;;;;;;18.05;56.44;94448.91;5088758;28;20028;-69
2022/05/24 06:03:15;;;;;;;10.43;7.85;;;;;;;18.25;55.03;94449.19;5070689;28;20024;-68
2022/05/24 06:05:40;;;;;;;15.75;7.75;;;;;;;18.54;54.54;94460.63;5087442;28;20466;-68
2022/05/24 06:08:08;;;;;;;13.05;7.80;;;;;;;18.77;53.73;94452.63;5071034;28;20065;-68
2022/05/24 06:10:34;;;;;;;16.33;8.07;;;;;;;18.92;53.24;94455.22;5089967;28;20418;-69
2022/05/24 06:12:59;;;;;;;16.95;9.60;;;;;;;19.06;53.13;94462.25;5089606;28;20070;-70
2022/05/24 06:15:25;;;;;;;17.95;9.05;;;;;;;19.23;52.62;94462.00;5090613;28;20043;-69
2022/05/24 06:17:51;;;;;;;18.45;10.82;;;;;;;19.43;52.32;94463.78;5072829;28;20064;-68
2022/05/24 06:20:17;;;;;;;18.55;9.65;;;;;;;19.67;51.64;94468.88;5091121;28;20031;-69
2022/05/24 06:22:43;;;;;;;16.00;8.63;;;;;;;19.83;50.72;94468.59;5072713;28;20422;-69
2022/05/24 06:25:08;;;;;;;22.63;8.63;;;;;;;19.92;50.47;94478.00;5089745;28;20325;-68
2022/05/24 06:27:34;;;;;;;19.50;8.57;;;;;;;20.12;50.65;94483.38;5090691;28;20030;-69
2022/05/24 06:29:59;;;;;;;15.73;8.90;;;;;;;20.27;49.61;94480.63;5090529;28;20478;-69
2022/05/24 06:32:25;;;;;;;17.63;8.18;;;;;;;20.30;49.42;94470.50;5090910;28;20024;-68
2022/05/24 06:34:52;;;;;;;15.43;8.18;;;;;;;20.33;49.21;94468.47;5091055;28;20056;-68
2022/05/24 06:37:19;;;;;;;15.80;7.70;;;;;;;20.17;48.78;94459.06;5089273;28;20032;-69
2022/05/24 06:39:45;;;;;;;29.63;8.55;;;;;;;20.12;49.43;94458.84;5072672;28;20035;-68
2022/05/24 06:42:10;;;;;;;17.73;7.80;;;;;;;20.15;49.95;94450.56;5090561;28;20452;-68
2022/05/24 06:44:36;;;;;;;18.55;7.10;;;;;;;20.26;49.08;94448.19;5089053;28;20044;-68
2022/05/24 06:47:01;;;;;;;13.05;7.35;;;;;;;20.47;49.11;94439.31;5090824;28;20497;-68
2022/05/24 06:49:27;;;;;;;11.40;6.55;;;;;;;20.63;48.15;94434.75;5089432;28;20458;-69
2022/05/24 06:51:52;;;;;;;10.05;6.90;;;;;;;20.68;47.54;94424.44;5089329;28;20028;-69
2022/05/24 06:54:18;;;;;;;9.55;6.47;;;;;;;20.77;48.01;94425.88;5090661;28;20093;-69
2022/05/24 06:56:43;;;;;;;39.13;7.05;;;;;;;20.86;48.70;94416.75;5072372;28;20067;-68
2022/05/24 07:04:38;;;;;;;10.10;6.32;;;;;;;20.74;49.07;94418.34;5089386;28;20066;-69
2022/05/24 07:07:04;;;;;;;15.02;6.70;;;;;;;20.95;48.90;94420.84;5092134;28;20058;-69
2022/05/24 07:09:31;;;;;;;9.43;6.05;;;;;;;21.06;47.84;94422.09;5094369;28;20417;-69
2022/05/24 07:11:58;;;;;;;9.23;6.32;;;;;;;20.87;48.29;94412.31;5094004;28;20410;-69
2022/05/24 07:14:23;;;;;;;10.13;6.20;;;;;;;21.11;48.48;94419.63;5092788;28;20028;-69
2022/05/24 07:16:48;;;;;;;17.40;6.93;;;;;;;21.34;48.15;94416.63;5092703;28;20134;-69
2022/05/24 07:19:14;;;;;;;11.18;6.30;;;;;;;21.35;47.92;94420.06;5092510;28;20089;-69
2022/05/24 07:21:39;;;;;;;10.27;6.10;;;;;;;21.41;47.35;94420.09;5092622;28;20058;-68
2022/05/24 07:24:05;;;;;;;12.40;5.93;;;;;;;21.62;47.03;94427.00;5093911;28;20036;-68
2022/05/24 07:26:30;;;;;;;9.40;6.07;;;;;;;21.60;46.84;94429.03;5093979;28;20478;-69
2022/05/24 07:28:56;;;;;;;12.02;7.15;;;;;;;21.61;46.64;94432.50;5093928;28;20474;-69
2022/05/24 07:31:21;;;;;;;14.98;8.63;;;;;;;21.83;46.89;94436.53;5075665;28;20433;-69
2022/05/24 07:33:47;;;;;;;13.98;8.82;;;;;;;22.02;46.05;94431.44;5092340;28;20036;-69
2022/05/24 07:36:12;;;;;;;16.30;8.15;;;;;;;22.12;45.60;94430.97;5093570;28;20391;-68
2022/05/24 07:38:38;;;;;;;16.10;8.15;;;;;;;22.21;45.21;94432.44;5093405;28;20059;-69
2022/05/24 07:46:32;;;;;;;21.90;8.90;;;;;;;22.54;44.60;94424.38;5093670;28;20109;-69
2022/05/24 07:48:57;;;;;;;24.20;9.57;;;;;;;22.55;43.40;94431.28;5075274;28;20486;-68
2022/05/24 07:51:23;;;;;;;18.05;9.18;;;;;;;22.70;43.23;94423.88;5092099;28;20054;-69
2022/05/24 07:53:49;;;;;;;9.52;7.07;;;;;;;22.82;43.13;94425.88;5091977;28;20028;-68
2022/05/24 07:56:15;;;;;;;16.90;7.03;;;;;;;22.71;43.66;94425.50;5092058;28;20028;-69
2022/05/24 07:58:43;;;;;;;12.88;7.28;;;;;;;22.49;44.66;94409.13;5091766;28;20221;-68
2022/05/24 08:01:10;;;;;;;11.88;7.45;;;;;;;22.59;44.07;94416.59;5091907;28;20050;-69
2022/05/24 08:03:35;;;;;;;13.63;6.50;;;;;;;22.51;45.32;94424.78;5075095;28;20024;-69
2022/05/24 08:06:01;;;;;;;15.55;7.68;;;;;;;22.73;45.59;94418.19;5074986;28;20035;-70
2022/05/24 08:08:27;;;;;;;19.33;7.93;;;;;;;22.92;43.86;94423.56;5092939;28;20119;-69
2022/05/24 08:10:52;;;;;;;19.50;7.70;;;;;;;22.81;44.33;94414.47;5091639;28;20063;-69
2022/05/24 08:13:19;;;;;;;12.85;7.50;;;;;;;22.91;44.06;94411.34;5092839;28;20081;-68
2022/05/24 08:15:44;;;;;;;14.32;6.82;;;;;;;22.95;44.28;94399.31;5074819;28;20066;-68
2022/05/24 08:18:10;;;;;;;12.98;7.70;;;;;;;23.15;44.24;94413.28;5090765;28;20061;-68
2022/05/24 08:20:35;;;;;;;16.10;8.52;;;;;;;23.30;43.66;94412.16;5092591;28;20474;-69
2022/05/24 08:23:01;;;;;;;11.07;7.00;;;;;;;23.48;43.89;94420.16;5074615;28;20047;-69
2022/05/24 08:25:27;;;;;;;9.55;7.40;;;;;;;23.64;44.31;94414.31;5092985;28;20036;-69
2022/05/24 08:27:53;;;;;;;10.75;7.68;;;;;;;23.88;43.23;94417.19;5092533;28;20074;-69
2022/05/24 08:30:18;;;;;;;48.30;9.60;;;;;;;24.00;43.26;94418.09;5092871;28;20040;-69
2022/05/24 08:32:44;;;;;;;92.95;12.10;;;;;;;24.03;43.43;94417.66;5092398;28;20035;-70
2022/05/24 08:35:11;;;;;;;17.00;6.68;;;;;;;24.02;42.67;94421.34;5057761;28;20032;-69
2022/05/24 08:37:37;;;;;;;15.23;7.60;;;;;;;24.03;42.91;94422.94;5092449;28;20043;-69
2022/05/24 08:40:03;;;;;;;10.40;7.03;;;;;;;24.04;43.58;94416.63;5074349;28;20028;-69
2022/05/24 08:42:32;;;;;;;9.52;6.78;;;;;;;24.09;43.22;94413.31;5092259;28;20038;-69
2022/05/24 08:48:23;;;;;;;15.07;6.82;;;;;;;24.18;42.99;94417.31;5092218;28;20418;-69
2022/05/24 08:51:27;;;;;;;9.23;6.63;;;;;;;24.41;42.40;94418.47;5091075;28;20040;-69
2022/05/24 08:53:54;;;;;;;42.25;9.35;;;;;;;24.42;42.54;94418.25;5053244;28;20425;-69
2022/05/24 08:56:53;;;;;;;19.50;8.20;;;;;;;24.50;42.75;94417.19;5074081;28;20035;-69
2022/05/24 08:59:24;;;;;;;17.38;7.15;;;;;;;24.43;42.60;94414.59;5087218;28;20336;-68
2022/05/24 09:01:49;;;;;;;10.73;6.95;;;;;;;24.33;42.86;94424.91;5090806;28;20032;-69
2022/05/24 09:04:15;;;;;;;13.80;7.55;;;;;;;24.48;42.20;94422.69;5073838;28;20458;-69
2022/05/24 09:06:53;;;;;;;13.13;8.80;;;;;;;24.65;42.37;94424.75;5073666;28;20111;-69
2022/05/24 09:09:53;;;;;;;12.18;7.18;;;;;;;24.76;43.26;94416.03;5091974;28;20555;-69
2022/05/24 09:12:27;;;;;;;22.27;8.52;;;;;;;24.78;42.69;94419.28;5091986;28;20050;-69
2022/05/24 09:15:11;;;;;;;14.13;7.30;;;;;;;24.85;41.77;94422.66;5091952;28;20031;-69
2022/05/24 09:18:09;;;;;;;16.55;7.60;;;;;;;24.85;42.59;94425.31;5091745;28;20077;-69
2022/05/24 09:20:39;;;;;;;22.88;6.85;;;;;;;24.60;41.92;94406.00;5090415;28;20040;-69
2022/05/24 09:23:10;;;;;;;;;;;;;;;24.61;42.11;94402.34;5090761;28;20498;-69
2022/05/24 09:25:35;;;;;;;14.38;6.57;;;;;;;24.62;42.41;94409.25;5073248;28;20367;-69
2022/05/24 09:28:01;;;;;;;19.27;6.90;;;;;;;24.63;42.85;94397.63;5090247;28;20028;-69
2022/05/24 09:30:43;;;;;;;22.27;7.43;;;;;;;24.68;44.07;94395.09;5089400;28;20559;-69
2022/05/24 09:33:25;;;;;;;10.30;6.53;;;;;;;24.81;42.10;94391.44;5073309;28;20043;-69
2022/05/24 09:35:58;;;;;;;19.10;7.95;;;;;;;24.45;42.68;94398.44;5091530;28;20024;-68
2022/05/24 09:38:27;;;;;;;16.90;7.03;;;;;;;24.55;42.82;94392.63;5091154;28;20519;-69
2022/05/24 09:40:58;;;;;;;15.55;8.98;;;;;;;24.67;43.26;94373.03;5073668;28;20099;-68
2022/05/24 09:43:33;;;;;;;13.90;7.95;;;;;;;24.72;44.36;94381.16;5073464;28;20032;-68
2022/05/24 09:46:03;;;;;;;17.02;8.75;;;;;;;25.04;43.67;94383.56;5090157;28;20051;-69
2022/05/24 09:48:31;;;;;;;11.38;6.78;;;;;;;24.81;42.72;94391.44;5090162;28;20040;-69
2022/05/24 09:50:57;;;;;;;10.85;7.13;;;;;;;24.96;42.87;94392.69;5091146;28;20111;-69
2022/05/24 09:53:28;;;;;;;19.08;7.13;;;;;;;25.01;43.02;94388.50;5091072;28;20032;-69
2022/05/24 09:56:02;;;;;;;15.57;8.23;;;;;;;25.11;42.77;94381.63;5073678;28;20388;-69
2022/05/24 09:58:38;;;;;;;12.75;7.30;;;;;;;25.26;41.95;94386.53;5073527;28;20079;-69
2022/05/24 10:01:12;;;;;;;24.15;7.57;;;;;;;25.31;41.82;94386.66;5089755;28;20035;-69
2022/05/24 10:03:45;;;;;;;18.88;9.07;;;;;;;25.45;41.92;94383.78;5073286;28;20085;-69
2022/05/24 10:06:26;;;;;;;11.57;7.10;;;;;;;25.58;40.83;94376.41;5089784;28;20470;-69
2022/05/24 10:09:00;;;;;;;14.20;9.48;;;;;;;25.62;40.81;94376.75;5089663;28;20032;-69
2022/05/24 10:11:30;;;;;;;15.88;9.05;;;;;;;25.59;41.22;94377.22;5073461;28;20387;-69
2022/05/24 10:14:08;;;;;;;11.80;7.15;;;;;;;25.63;41.18;94378.34;5089849;28;20060;-68
2022/05/24 10:16:41;;;;;;;14.30;7.80;;;;;;;25.62;41.76;94382.06;5089691;28;20437;-69
2022/05/24 10:19:40;;;;;;;17.67;7.55;;;;;;;25.67;41.52;94379.53;5073541;28;20471;-69
2022/05/24 10:22:09;;;;;;;12.70;7.75;;;;;;;25.71;40.85;94386.00;5089500;28;20032;-69
2022/05/24 10:25:05;;;;;;;8.23;6.78;;;;;;;25.41;41.09;94375.47;5090950;28;20031;-69
2022/05/24 10:27:46;;;;;;;8.55;6.82;;;;;;;25.44;41.58;94376.88;5089483;28;20039;-69
2022/05/24 10:30:20;;;;;;;17.13;8.25;;;;;;;25.52;42.00;94365.88;5079089;28;20036;-69
2022/05/24 10:39:00;;;;;;;15.55;7.60;;;;;;;25.74;41.52;94380.22;5079168;28;20048;-69
2022/05/24 10:41:47;;;;;;;15.85;7.07;;;;;;;25.89;40.57;94378.97;5083652;28;20331;-69
2022/05/24 10:44:40;;;;;;;15.40;7.65;;;;;;;25.83;41.15;94370.88;5062484;28;20052;-69
2022/05/24 10:47:07;;;;;;;21.98;8.13;;;;;;;25.91;41.13;94360.91;5094231;28;20463;-71
2022/05/24 10:49:46;;;;;;;14.07;7.30;;;;;;;25.85;40.46;94352.84;5092791;28;20032;-71
2022/05/24 10:52:16;;;;;;;15.60;7.85;;;;;;;25.92;40.96;94343.94;5072422;28;20032;-72
2022/05/24 10:54:45;;;;;;;12.15;8.15;;;;;;;26.04;41.30;94347.38;5083216;28;20020;-68
2022/05/24 10:57:26;;;;;;;19.70;8.30;;;;;;;26.12;40.95;94341.69;5078034;28;20040;-67
2022/05/24 11:00:06;;;;;;;12.23;7.97;;;;;;;26.24;40.07;94339.81;5073700;28;20054;-67
2022/05/24 11:02:52;;;;;;;12.57;7.57;;;;;;;26.37;40.44;94340.59;5087596;28;20344;-67
2022/05/24 11:05:26;;;;;;;12.40;7.85;;;;;;;26.44;40.41;94346.56;5086873;28;20036;-68
2022/05/24 11:07:57;;;;;;;15.13;7.70;;;;;;;26.57;40.07;94345.53;5075705;28;20032;-68
2022/05/24 11:10:28;;;;;;;10.57;7.32;;;;;;;26.61;39.41;94350.16;5069882;28;20050;-68
2022/05/24 11:13:07;;;;;;;10.65;7.75;;;;;;;26.60;39.41;94345.84;5078900;28;20037;-68
2022/05/24 11:15:36;;;;;;;21.30;7.63;;;;;;;26.66;40.16;94347.59;5073137;28;20035;-68
2022/05/24 11:18:03;;;;;;;20.67;8.23;;;;;;;26.67;39.81;94340.41;5071408;28;20036;-68
2022/05/24 11:20:37;;;;;;;12.70;8.07;;;;;;;26.81;39.59;94330.25;5067736;28;20028;-67
2022/05/24 11:23:22;;;;;;;11.23;7.80;;;;;;;26.87;39.46;94323.97;5090748;28;20137;-68
2022/05/24 11:25:54;;;;;;;18.25;7.97;;;;;;;26.69;39.51;94314.31;5080810;28;20034;-68
2022/05/24 11:28:25;;;;;;;18.45;8.00;;;;;;;26.71;39.39;94310.38;5084182;28;20035;-67
2022/05/24 11:30:51;;;;;;;19.33;8.00;;;;;;;26.78;38.78;94299.56;5089198;28;20490;-68
2022/05/24 11:33:49;;;;;;;24.88;8.55;;;;;;;26.78;39.21;94301.44;5071463;28;20109;-67
2022/05/24 11:36:33;;;;;;;15.35;8.40;;;;;;;26.77;38.79;94297.13;5035188;28;20044;-67
2022/05/24 11:39:08;;;;;;;14.20;8.18;;;;;;;26.87;38.93;94289.34;5085471;28;20033;-68
2022/05/24 11:41:33;;;;;;;23.98;9.98;;;;;;;26.93;39.71;94280.38;5056352;28;20031;-68
2022/05/24 11:44:04;;;;;;;12.95;8.00;;;;;;;26.99;39.60;94275.94;5084331;28;20036;-68
2022/05/24 11:46:46;;;;;;;14.82;8.02;;;;;;;27.07;38.45;94287.00;5075926;28;20485;-68
2022/05/24 11:49:18;;;;;;;15.02;7.97;;;;;;;27.10;39.50;94283.84;5092174;28;20047;-68
2022/05/24 11:51:50;;;;;;;15.68;8.48;;;;;;;26.78;40.48;94282.78;5092143;28;20089;-67
2022/05/24 11:54:16;;;;;;;23.30;8.75;;;;;;;26.82;40.19;94271.41;5090987;28;20024;-68
2022/05/24 11:57:02;;;;;;;18.23;8.70;;;;;;;26.93;39.14;94267.84;5088138;28;20032;-70
2022/05/24 11:59:57;;;;;;;17.25;8.80;;;;;;;27.06;39.83;94257.94;5065036;28;20075;-68
2022/05/24 12:02:26;;;;;;;15.65;8.77;;;;;;;27.12;39.92;94256.97;5086362;28;20028;-68
2022/05/24 12:07:55;;;;;;;17.25;9.48;;;;;;;26.97;39.25;94249.53;5091780;28;20082;-68
2022/05/24 12:10:20;;;;;;;18.23;8.93;;;;;;;26.88;39.22;94232.31;5091800;28;20039;-68
2022/05/24 12:12:52;;;;;;;14.45;10.65;;;;;;;26.88;39.03;94240.31;5092899;28;20028;-68
2022/05/24 12:15:25;;;;;;;14.88;8.95;;;;;;;26.96;40.75;94237.25;5093218;28;20405;-68